Time,TemperatureF,DewpointF,PressureIn,WindDirection,WindDirectionDegrees,WindSpeedMPH,WindSpeedGustMPH,Humidity,HourlyPrecipIn,Conditions,Clouds,dailyrainin,SolarRadiationWatts/m^2,SoftwareType,DateUTC
2013-06-01 00:01:00,53.0,46.0,-100.00,South,191,2.0,6.0,77,-99.99,,,0.00,0.000000,,2013-06-01 07:01:00,
2013-06-01 00:11:00,53.0,46.0,-100.00,South,191,2.0,6.0,77,-99.99,,,0.00,0.000000,,2013-06-01 07:11:00,
2013-06-01 00:31:00,50.0,45.0,-100.00,SSE,158,2.0,4.0,83,-99.99,,,0.00,0.000000,,2013-06-01 07:31:00,
2013-06-01 00:42:00,50.0,45.0,-100.00,SSE,158,2.0,4.0,83,-99.99,,,0.00,0.000000,,2013-06-01 07:42:00,
2013-06-01 00:52:00,50.0,45.0,-100.00,SSE,158,2.0,4.0,83,-99.99,,,0.00,0.000000,,2013-06-01 07:52:00,
2013-06-01 01:02:00,50.0,45.0,-100.00,SSE,158,2.0,4.0,83,-99.99,,,0.00,0.000000,,2013-06-01 08:02:00,
2013-06-01 01:11:00,50.0,45.0,-100.00,SSE,158,2.0,4.0,83,-99.99,,,0.00,0.000000,,2013-06-01 08:11:00,
2013-06-01 01:32:00,48.0,44.0,-100.00,SSE,163,2.0,4.0,87,-99.99,,,0.00,0.000000,,2013-06-01 08:32:00,
2013-06-01 01:42:00,48.0,44.0,-100.00,SSE,163,2.0,4.0,87,-99.99,,,0.00,0.000000,,2013-06-01 08:42:00,
2013-06-01 01:52:00,48.0,44.0,-100.00,SSE,163,2.0,4.0,87,-99.99,,,0.00,0.000000,,2013-06-01 08:52:00,
2013-06-01 02:01:00,48.0,44.0,-100.00,SSE,163,2.0,4.0,87,-99.99,,,0.00,0.000000,,2013-06-01 09:01:00,
2013-06-01 02:12:00,48.0,44.0,-100.00,SSE,163,2.0,4.0,87,-99.99,,,0.00,0.000000,,2013-06-01 09:12:00,
2013-06-01 02:42:00,46.0,43.0,-100.00,South,185,1.0,3.0,90,-99.99,,,0.00,0.000000,,2013-06-01 09:42:00,
2013-06-01 02:53:00,46.0,43.0,-100.00,South,185,1.0,3.0,90,-99.99,,,0.00,0.000000,,2013-06-01 09:53:00,
2013-06-01 03:02:00,46.0,43.0,-100.00,South,185,1.0,3.0,90,-99.99,,,0.00,0.000000,,2013-06-01 10:02:00,
2013-06-01 03:12:00,46.0,43.0,-100.00,South,185,1.0,3.0,90,-99.99,,,0.00,0.000000,,2013-06-01 10:12:00,
2013-06-01 03:32:00,44.0,43.0,-100.00,SSW,205,1.0,3.0,94,-99.99,,,0.00,0.000000,,2013-06-01 10:32:00,
2013-06-01 03:42:00,44.0,43.0,-100.00,SSW,205,1.0,3.0,94,-99.99,,,0.00,0.000000,,2013-06-01 10:42:00,
2013-06-01 03:52:00,44.0,43.0,-100.00,SSW,205,1.0,3.0,94,-99.99,,,0.00,0.000000,,2013-06-01 10:52:00,
2013-06-01 04:02:00,44.0,43.0,-100.00,SSW,205,1.0,3.0,94,-99.99,,,0.00,0.000000,,2013-06-01 11:02:00,
2013-06-01 04:11:00,44.0,43.0,-100.00,SSW,205,1.0,3.0,94,-99.99,,,0.00,0.000000,,2013-06-01 11:11:00,
2013-06-01 04:32:00,42.0,41.0,-100.00,SSW,210,1.0,2.0,95,-99.99,,,0.00,0.000000,,2013-06-01 11:32:00,
2013-06-01 04:42:00,42.0,41.0,-100.00,SSW,210,1.0,2.0,95,-99.99,,,0.00,0.000000,,2013-06-01 11:42:00,
2013-06-01 04:52:00,42.0,41.0,-100.00,SSW,210,1.0,2.0,95,-99.99,,,0.00,0.000000,,2013-06-01 11:52:00,
2013-06-01 05:01:00,42.0,41.0,-100.00,SSW,210,1.0,2.0,95,-99.99,,,0.00,0.000000,,2013-06-01 12:01:00,
2013-06-01 05:11:00,42.0,41.0,-100.00,SSW,210,1.0,2.0,95,-99.99,,,0.00,0.000000,,2013-06-01 12:11:00,
2013-06-01 05:41:00,43.0,42.0,-100.00,SSW,206,1.0,3.0,97,-99.99,,,0.00,0.810000,,2013-06-01 12:41:00,
2013-06-01 05:52:00,43.0,42.0,-100.00,SSW,206,1.0,3.0,97,-99.99,,,0.00,0.810000,,2013-06-01 12:52:00,
2013-06-01 06:01:00,43.0,42.0,-100.00,SSW,206,1.0,3.0,97,-99.99,,,0.00,0.810000,,2013-06-01 13:01:00,
2013-06-01 06:11:00,43.0,42.0,-100.00,SSW,206,1.0,3.0,97,-99.99,,,0.00,0.810000,,2013-06-01 13:11:00,
2013-06-01 06:42:00,44.0,44.0,-100.00,SW,216,1.0,3.0,97,-99.99,,,0.00,39.400002,,2013-06-01 13:42:00,
2013-06-01 06:52:00,44.0,44.0,-100.00,SW,216,1.0,3.0,97,-99.99,,,0.00,39.400002,,2013-06-01 13:52:00,
2013-06-01 07:02:00,44.0,44.0,-100.00,SW,216,1.0,3.0,97,-99.99,,,0.00,39.400002,,2013-06-01 14:02:00,
2013-06-01 07:11:00,44.0,44.0,-100.00,SW,216,1.0,3.0,97,-99.99,,,0.00,39.400002,,2013-06-01 14:11:00,
2013-06-01 07:32:00,47.0,46.0,-100.00,ESE,111,0.0,2.0,96,-99.99,,,-99.99,131.330002,,2013-06-01 14:32:00,
2013-06-01 07:42:00,47.0,46.0,-100.00,ESE,111,0.0,2.0,96,-99.99,,,-99.99,131.330002,,2013-06-01 14:42:00,
2013-06-01 07:52:00,47.0,46.0,-100.00,ESE,111,0.0,2.0,96,-99.99,,,-99.99,131.330002,,2013-06-01 14:52:00,
2013-06-01 08:01:00,47.0,46.0,-100.00,ESE,111,0.0,2.0,96,-99.99,,,-99.99,131.330002,,2013-06-01 15:01:00,
2013-06-01 08:11:00,47.0,46.0,-100.00,ESE,111,0.0,2.0,96,-99.99,,,-99.99,131.330002,,2013-06-01 15:11:00,
2013-06-01 08:33:00,54.0,46.0,-100.00,SE,137,0.0,2.0,75,-99.99,,,0.00,240.919998,,2013-06-01 15:33:00,
2013-06-01 08:43:00,54.0,46.0,-100.00,SE,137,0.0,2.0,75,-99.99,,,0.00,240.919998,,2013-06-01 15:43:00,
2013-06-01 08:53:00,54.0,46.0,-100.00,SE,137,0.0,2.0,75,-99.99,,,0.00,240.919998,,2013-06-01 15:53:00,
2013-06-01 09:03:00,54.0,46.0,-100.00,SE,137,0.0,2.0,75,-99.99,,,0.00,240.919998,,2013-06-01 16:03:00,
2013-06-01 09:12:00,54.0,46.0,-100.00,SE,137,0.0,2.0,75,-99.99,,,0.00,240.919998,,2013-06-01 16:12:00,
2013-06-01 09:33:00,59.0,47.0,-100.00,North,9,2.0,5.0,64,-99.99,,,0.00,507.769989,,2013-06-01 16:33:00,
2013-06-01 09:42:00,59.0,47.0,-100.00,North,9,2.0,5.0,64,-99.99,,,0.00,507.769989,,2013-06-01 16:42:00,
2013-06-01 09:52:00,59.0,47.0,-100.00,North,9,2.0,5.0,64,-99.99,,,0.00,507.769989,,2013-06-01 16:52:00,
2013-06-01 10:02:00,59.0,47.0,-100.00,North,9,2.0,5.0,64,-99.99,,,0.00,507.769989,,2013-06-01 17:02:00,
2013-06-01 10:11:00,59.0,47.0,-100.00,North,9,2.0,5.0,64,-99.99,,,0.00,507.769989,,2013-06-01 17:11:00,
2013-06-01 10:32:00,63.0,49.0,-100.00,North,7,3.0,7.0,59,-99.99,,,0.00,562.390015,,2013-06-01 17:32:00,
2013-06-01 10:42:00,63.0,49.0,-100.00,North,7,3.0,7.0,59,-99.99,,,0.00,562.390015,,2013-06-01 17:42:00,
2013-06-01 10:52:00,63.0,49.0,-100.00,North,7,3.0,7.0,59,-99.99,,,0.00,562.390015,,2013-06-01 17:52:00,
2013-06-01 11:01:00,63.0,49.0,-100.00,North,7,3.0,7.0,59,-99.99,,,0.00,562.390015,,2013-06-01 18:01:00,
2013-06-01 11:11:00,63.0,49.0,-100.00,North,7,3.0,7.0,59,-99.99,,,0.00,562.390015,,2013-06-01 18:11:00,
2013-06-01 11:32:00,65.0,50.0,-100.00,North,4,2.0,6.0,57,-99.99,,,0.00,360.859985,,2013-06-01 18:32:00,
2013-06-01 11:41:00,65.0,50.0,-100.00,North,4,2.0,6.0,57,-99.99,,,0.00,360.859985,,2013-06-01 18:41:00,
2013-06-01 11:52:00,65.0,50.0,-100.00,North,4,2.0,6.0,57,-99.99,,,0.00,360.859985,,2013-06-01 18:52:00,
2013-06-01 12:01:00,65.0,50.0,-100.00,North,4,2.0,6.0,57,-99.99,,,0.00,360.859985,,2013-06-01 19:01:00,
2013-06-01 12:11:00,65.0,50.0,-100.00,North,4,2.0,6.0,57,-99.99,,,0.00,360.859985,,2013-06-01 19:11:00,
2013-06-01 12:32:00,67.0,49.0,-100.00,NNE,14,1.0,3.0,52,-99.99,,,0.00,453.959991,,2013-06-01 19:32:00,
2013-06-01 12:41:00,67.0,49.0,-100.00,NNE,14,1.0,3.0,52,-99.99,,,0.00,453.959991,,2013-06-01 19:41:00,
2013-06-01 12:52:00,67.0,49.0,-100.00,NNE,14,1.0,3.0,52,-99.99,,,0.00,453.959991,,2013-06-01 19:52:00,
2013-06-01 13:01:00,67.0,49.0,-100.00,NNE,14,1.0,3.0,52,-99.99,,,0.00,453.959991,,2013-06-01 20:01:00,
2013-06-01 13:11:00,67.0,49.0,-100.00,NNE,14,1.0,3.0,52,-99.99,,,0.00,453.959991,,2013-06-01 20:11:00,
2013-06-01 13:32:00,71.0,50.0,-100.00,NNE,18,4.0,10.0,47,-99.99,,,0.00,935.570007,,2013-06-01 20:32:00,
2013-06-01 13:41:00,71.0,50.0,-100.00,NNE,18,4.0,10.0,47,-99.99,,,0.00,935.570007,,2013-06-01 20:41:00,
2013-06-01 13:52:00,71.0,50.0,-100.00,NNE,18,4.0,10.0,47,-99.99,,,0.00,935.570007,,2013-06-01 20:52:00,
2013-06-01 14:01:00,71.0,50.0,-100.00,NNE,18,4.0,10.0,47,-99.99,,,0.00,935.570007,,2013-06-01 21:01:00,
2013-06-01 14:11:00,71.0,50.0,-100.00,NNE,18,4.0,10.0,47,-99.99,,,0.00,935.570007,,2013-06-01 21:11:00,
2013-06-01 14:33:00,74.0,50.0,-100.00,NNE,24,3.0,7.0,43,-99.99,,,0.00,842.599976,,2013-06-01 21:33:00,
2013-06-01 14:42:00,74.0,50.0,-100.00,NNE,24,3.0,7.0,43,-99.99,,,0.00,842.599976,,2013-06-01 21:42:00,
2013-06-01 14:53:00,74.0,50.0,-100.00,NNE,24,3.0,7.0,43,-99.99,,,0.00,842.599976,,2013-06-01 21:53:00,
2013-06-01 15:03:00,74.0,50.0,-100.00,NNE,24,3.0,7.0,43,-99.99,,,0.00,842.599976,,2013-06-01 22:03:00,
2013-06-01 15:12:00,74.0,50.0,-100.00,NNE,24,3.0,7.0,43,-99.99,,,0.00,842.599976,,2013-06-01 22:12:00,
2013-06-01 15:33:00,76.0,48.0,-100.00,NW,314,3.0,9.0,37,-99.99,,,0.00,901.869995,,2013-06-01 22:33:00,
2013-06-01 15:42:00,76.0,48.0,-100.00,NW,314,3.0,9.0,37,-99.99,,,0.00,901.869995,,2013-06-01 22:42:00,
2013-06-01 15:53:00,76.0,48.0,-100.00,NW,314,3.0,9.0,37,-99.99,,,0.00,901.869995,,2013-06-01 22:53:00,
2013-06-01 16:02:00,76.0,48.0,-100.00,NW,314,3.0,9.0,37,-99.99,,,0.00,901.869995,,2013-06-01 23:02:00,
2013-06-01 16:11:00,76.0,48.0,-100.00,NW,314,3.0,9.0,37,-99.99,,,0.00,901.869995,,2013-06-01 23:11:00,
2013-06-01 16:32:00,75.0,48.0,-100.00,WSW,256,2.0,7.0,38,-99.99,,,0.00,511.019989,,2013-06-01 23:32:00,
2013-06-01 16:42:00,75.0,48.0,-100.00,WSW,256,2.0,7.0,38,-99.99,,,0.00,511.019989,,2013-06-01 23:42:00,
2013-06-01 16:52:00,75.0,48.0,-100.00,WSW,256,2.0,7.0,38,-99.99,,,0.00,511.019989,,2013-06-01 23:52:00,
2013-06-01 17:02:00,75.0,48.0,-100.00,WSW,256,2.0,7.0,38,-99.99,,,0.00,511.019989,,2013-06-02 00:02:00,
2013-06-01 17:11:00,75.0,48.0,-100.00,WSW,256,2.0,7.0,38,-99.99,,,0.00,511.019989,,2013-06-02 00:11:00,
2013-06-01 17:41:00,74.0,49.0,-100.00,WNW,284,2.0,9.0,40,-99.99,,,0.00,606.780029,,2013-06-02 00:41:00,
2013-06-01 17:52:00,74.0,49.0,-100.00,WNW,284,2.0,9.0,40,-99.99,,,0.00,606.780029,,2013-06-02 00:52:00,
2013-06-01 18:01:00,74.0,49.0,-100.00,WNW,284,2.0,9.0,40,-99.99,,,0.00,606.780029,,2013-06-02 01:01:00,
2013-06-01 18:11:00,74.0,49.0,-100.00,WNW,284,2.0,9.0,40,-99.99,,,0.00,606.780029,,2013-06-02 01:11:00,
2013-06-01 18:32:00,73.0,49.0,-100.00,SW,220,3.0,9.0,43,-99.99,,,0.00,401.079987,,2013-06-02 01:32:00,
2013-06-01 18:41:00,73.0,49.0,-100.00,SW,220,3.0,9.0,43,-99.99,,,0.00,401.079987,,2013-06-02 01:41:00,
2013-06-01 18:52:00,73.0,49.0,-100.00,SW,220,3.0,9.0,43,-99.99,,,0.00,401.079987,,2013-06-02 01:52:00,
2013-06-01 19:01:00,73.0,49.0,-100.00,SW,220,3.0,9.0,43,-99.99,,,0.00,401.079987,,2013-06-02 02:01:00,
2013-06-01 19:12:00,73.0,49.0,-100.00,SW,220,3.0,9.0,43,-99.99,,,0.00,401.079987,,2013-06-02 02:12:00,
2013-06-01 19:32:00,69.0,49.0,-100.00,SW,224,1.0,4.0,49,-99.99,,,0.00,134.350006,,2013-06-02 02:32:00,
2013-06-01 19:41:00,69.0,49.0,-100.00,SW,224,1.0,4.0,49,-99.99,,,0.00,134.350006,,2013-06-02 02:41:00,
2013-06-01 19:52:00,69.0,49.0,-100.00,SW,224,1.0,4.0,49,-99.99,,,0.00,134.350006,,2013-06-02 02:52:00,
2013-06-01 20:02:00,69.0,49.0,-100.00,SW,224,1.0,4.0,49,-99.99,,,0.00,134.350006,,2013-06-02 03:02:00,
2013-06-01 20:11:00,69.0,49.0,-100.00,SW,224,1.0,4.0,49,-99.99,,,0.00,134.350006,,2013-06-02 03:11:00,
2013-06-01 20:33:00,63.0,50.0,-100.00,NW,305,1.0,2.0,61,-99.99,,,0.00,15.810000,,2013-06-02 03:33:00,
2013-06-01 20:43:00,63.0,50.0,-100.00,NW,305,1.0,2.0,61,-99.99,,,0.00,15.810000,,2013-06-02 03:43:00,
2013-06-01 20:53:00,63.0,50.0,-100.00,NW,305,1.0,2.0,61,-99.99,,,0.00,15.810000,,2013-06-02 03:53:00,
2013-06-01 21:02:00,63.0,50.0,-100.00,NW,305,1.0,2.0,61,-99.99,,,0.00,15.810000,,2013-06-02 04:02:00,
2013-06-01 21:13:00,63.0,50.0,-100.00,NW,305,1.0,2.0,61,-99.99,,,0.00,15.810000,,2013-06-02 04:13:00,
2013-06-01 21:33:00,58.0,50.0,-100.00,NE,35,0.0,2.0,74,-99.99,,,0.00,0.700000,,2013-06-02 04:33:00,
2013-06-01 21:42:00,58.0,50.0,-100.00,NE,35,0.0,2.0,74,-99.99,,,0.00,0.700000,,2013-06-02 04:42:00,
2013-06-01 21:53:00,58.0,50.0,-100.00,NE,35,0.0,2.0,74,-99.99,,,0.00,0.700000,,2013-06-02 04:53:00,
2013-06-01 22:02:00,58.0,50.0,-100.00,NE,35,0.0,2.0,74,-99.99,,,0.00,0.700000,,2013-06-02 05:02:00,
2013-06-01 22:11:00,58.0,50.0,-100.00,NE,35,0.0,2.0,74,-99.99,,,0.00,0.700000,,2013-06-02 05:11:00,
2013-06-01 22:32:00,55.0,49.0,-100.00,SSE,157,0.0,2.0,82,-99.99,,,0.00,0.000000,,2013-06-02 05:32:00,
2013-06-01 22:42:00,55.0,49.0,-100.00,SSE,157,0.0,2.0,82,-99.99,,,0.00,0.000000,,2013-06-02 05:42:00,
2013-06-01 22:52:00,55.0,49.0,-100.00,SSE,157,0.0,2.0,82,-99.99,,,0.00,0.000000,,2013-06-02 05:52:00,
2013-06-01 23:01:00,55.0,49.0,-100.00,SSE,157,0.0,2.0,82,-99.99,,,0.00,0.000000,,2013-06-02 06:01:00,
2013-06-01 23:12:00,55.0,49.0,-100.00,SSE,157,0.0,2.0,82,-99.99,,,0.00,0.000000,,2013-06-02 06:12:00,
2013-06-01 23:32:00,54.0,49.0,-100.00,SSE,163,1.0,3.0,84,-99.99,,,0.00,0.000000,,2013-06-02 06:32:00,
2013-06-01 23:41:00,54.0,49.0,-100.00,SSE,163,1.0,3.0,84,-99.99,,,0.00,0.000000,,2013-06-02 06:41:00,
2013-06-01 23:52:00,54.0,49.0,-100.00,SSE,163,1.0,3.0,84,-99.99,,,0.00,0.000000,,2013-06-02 06:52:00,